sensor_id;sensor_type;location;lat;lon;timestamp;temperature;humidity
6118;DHT22;3089;48.202;11.510;2022-12-07T00:01:18;3.50;99.90
6118;DHT22;3089;48.202;11.510;2022-12-07T00:03:47;3.50;99.90
6118;DHT22;3089;48.202;11.510;2022-12-07T00:06:17;3.50;99.90
6118;DHT22;3089;48.202;11.510;2022-12-07T00:08:45;3.50;99.90
6118;DHT22;3089;48.202;11.510;2022-12-07T00:11:17;3.60;99.90
6118;DHT22;3089;48.202;11.510;2022-12-07T00:13:45;3.50;99.90
6118;DHT22;3089;48.202;11.510;2022-12-07T00:16:15;3.50;99.90
6118;DHT22;3089;48.202;11.510;2022-12-07T00:18:44;3.50;99.90
6118;DHT22;3089;48.202;11.510;2022-12-07T00:21:14;3.50;99.90
6118;DHT22;3089;48.202;11.510;2022-12-07T00:23:43;3.50;99.90
6118;DHT22;3089;48.202;11.510;2022-12-07T00:26:13;3.50;99.90
6118;DHT22;3089;48.202;11.510;2022-12-07T00:28:45;3.40;99.90
6118;DHT22;3089;48.202;11.510;2022-12-07T00:31:14;3.50;99.90
6118;DHT22;3089;48.202;11.510;2022-12-07T00:33:43;3.40;99.90
6118;DHT22;3089;48.202;11.510;2022-12-07T00:36:13;3.40;99.90
6118;DHT22;3089;48.202;11.510;2022-12-07T00:38:41;3.50;99.90
6118;DHT22;3089;48.202;11.510;2022-12-07T00:41:11;3.50;99.90
6118;DHT22;3089;48.202;11.510;2022-12-07T00:43:40;3.40;99.90
6118;DHT22;3089;48.202;11.510;2022-12-07T00:46:10;3.40;99.90
6118;DHT22;3089;48.202;11.510;2022-12-07T00:48:38;3.40;99.90
6118;DHT22;3089;48.202;11.510;2022-12-07T00:51:07;3.40;99.90
6118;DHT22;3089;48.202;11.510;2022-12-07T00:53:35;3.30;99.90
6118;DHT22;3089;48.202;11.510;2022-12-07T00:56:07;3.30;99.90
6118;DHT22;3089;48.202;11.510;2022-12-07T00:58:35;3.40;99.90
6118;DHT22;3089;48.202;11.510;2022-12-07T01:01:04;3.40;99.90
6118;DHT22;3089;48.202;11.510;2022-12-07T01:03:34;3.40;99.90
6118;DHT22;3089;48.202;11.510;2022-12-07T01:06:02;3.40;99.90
6118;DHT22;3089;48.202;11.510;2022-12-07T01:08:31;3.40;99.90
6118;DHT22;3089;48.202;11.510;2022-12-07T01:11:00;3.40;99.90
6118;DHT22;3089;48.202;11.510;2022-12-07T01:13:28;3.40;99.90
6118;DHT22;3089;48.202;11.510;2022-12-07T01:15:57;3.40;99.90
6118;DHT22;3089;48.202;11.510;2022-12-07T01:18:27;3.40;99.90
6118;DHT22;3089;48.202;11.510;2022-12-07T01:21:00;3.40;99.90
6118;DHT22;3089;48.202;11.510;2022-12-07T01:23:29;3.40;99.90
6118;DHT22;3089;48.202;11.510;2022-12-07T01:25:57;3.40;99.90
6118;DHT22;3089;48.202;11.510;2022-12-07T01:28:26;3.40;99.90
6118;DHT22;3089;48.202;11.510;2022-12-07T01:30:58;3.30;99.90
6118;DHT22;3089;48.202;11.510;2022-12-07T01:33:27;3.40;99.90
6118;DHT22;3089;48.202;11.510;2022-12-07T01:36:02;3.30;99.90
6118;DHT22;3089;48.202;11.510;2022-12-07T01:38:31;3.30;99.90
6118;DHT22;3089;48.202;11.510;2022-12-07T01:41:00;3.30;99.90
6118;DHT22;3089;48.202;11.510;2022-12-07T01:43:31;3.30;99.90
6118;DHT22;3089;48.202;11.510;2022-12-07T01:46:04;3.30;99.90
6118;DHT22;3089;48.202;11.510;2022-12-07T01:48:34;3.20;99.90
6118;DHT22;3089;48.202;11.510;2022-12-07T01:51:06;3.30;99.90
6118;DHT22;3089;48.202;11.510;2022-12-07T01:53:38;3.30;99.90
6118;DHT22;3089;48.202;11.510;2022-12-07T01:56:08;3.20;99.90
6118;DHT22;3089;48.202;11.510;2022-12-07T01:58:37;3.30;99.90
6118;DHT22;3089;48.202;11.510;2022-12-07T02:01:05;3.30;99.90
6118;DHT22;3089;48.202;11.510;2022-12-07T02:03:36;3.30;99.90
6118;DHT22;3089;48.202;11.510;2022-12-07T02:06:08;3.20;99.90
6118;DHT22;3089;48.202;11.510;2022-12-07T02:08:38;3.20;99.90
6118;DHT22;3089;48.202;11.510;2022-12-07T02:11:07;3.30;99.90
6118;DHT22;3089;48.202;11.510;2022-12-07T02:13:38;3.30;99.90
6118;DHT22;3089;48.202;11.510;2022-12-07T02:16:18;3.30;99.90
6118;DHT22;3089;48.202;11.510;2022-12-07T02:18:57;3.30;99.90
6118;DHT22;3089;48.202;11.510;2022-12-07T02:21:37;3.30;99.90
6118;DHT22;3089;48.202;11.510;2022-12-07T02:24:28;3.30;99.90
6118;DHT22;3089;48.202;11.510;2022-12-07T02:29:57;3.30;99.90
6118;DHT22;3089;48.202;11.510;2022-12-07T02:32:34;3.30;99.90
6118;DHT22;3089;48.202;11.510;2022-12-07T02:35:06;3.30;99.90
6118;DHT22;3089;48.202;11.510;2022-12-07T02:37:37;3.30;99.90
6118;DHT22;3089;48.202;11.510;2022-12-07T02:40:09;3.30;99.90
6118;DHT22;3089;48.202;11.510;2022-12-07T02:42:42;3.30;99.90
6118;DHT22;3089;48.202;11.510;2022-12-07T02:45:15;3.20;99.90
6118;DHT22;3089;48.202;11.510;2022-12-07T02:47:46;3.30;99.90
6118;DHT22;3089;48.202;11.510;2022-12-07T02:50:18;3.30;99.90
6118;DHT22;3089;48.202;11.510;2022-12-07T02:52:47;3.30;99.90
6118;DHT22;3089;48.202;11.510;2022-12-07T02:55:18;3.30;99.90
6118;DHT22;3089;48.202;11.510;2022-12-07T02:57:59;3.30;99.90
6118;DHT22;3089;48.202;11.510;2022-12-07T03:00:31;3.20;99.90
6118;DHT22;3089;48.202;11.510;2022-12-07T03:03:09;3.20;99.90
6118;DHT22;3089;48.202;11.510;2022-12-07T03:05:56;3.20;99.90
6118;DHT22;3089;48.202;11.510;2022-12-07T03:08:33;3.20;99.90
6118;DHT22;3089;48.202;11.510;2022-12-07T03:11:04;3.20;99.90
6118;DHT22;3089;48.202;11.510;2022-12-07T03:13:37;3.20;99.90
6118;DHT22;3089;48.202;11.510;2022-12-07T03:16:13;3.30;99.90
6118;DHT22;3089;48.202;11.510;2022-12-07T03:18:48;3.20;99.90
6118;DHT22;3089;48.202;11.510;2022-12-07T03:21:18;3.20;99.90
6118;DHT22;3089;48.202;11.510;2022-12-07T03:23:52;3.20;99.90
6118;DHT22;3089;48.202;11.510;2022-12-07T03:26:23;3.20;99.90
6118;DHT22;3089;48.202;11.510;2022-12-07T03:28:54;3.20;99.90
6118;DHT22;3089;48.202;11.510;2022-12-07T03:31:26;3.20;99.90
6118;DHT22;3089;48.202;11.510;2022-12-07T03:34:01;3.20;99.90
6118;DHT22;3089;48.202;11.510;2022-12-07T03:36:35;3.20;99.90
6118;DHT22;3089;48.202;11.510;2022-12-07T03:39:14;3.20;99.90
6118;DHT22;3089;48.202;11.510;2022-12-07T03:41:45;3.20;99.90
6118;DHT22;3089;48.202;11.510;2022-12-07T03:44:15;3.20;99.90
6118;DHT22;3089;48.202;11.510;2022-12-07T03:46:50;3.20;99.90
6118;DHT22;3089;48.202;11.510;2022-12-07T03:49:24;3.20;99.90
6118;DHT22;3089;48.202;11.510;2022-12-07T03:51:56;3.10;99.90
6118;DHT22;3089;48.202;11.510;2022-12-07T03:54:30;3.20;99.90
6118;DHT22;3089;48.202;11.510;2022-12-07T03:57:01;3.20;99.90
6118;DHT22;3089;48.202;11.510;2022-12-07T03:59:30;3.10;99.90
6118;DHT22;3089;48.202;11.510;2022-12-07T04:02:03;3.20;99.90
6118;DHT22;3089;48.202;11.510;2022-12-07T04:04:31;3.10;99.90
6118;DHT22;3089;48.202;11.510;2022-12-07T04:07:00;3.10;99.90
6118;DHT22;3089;48.202;11.510;2022-12-07T04:09:28;3.20;99.90
6118;DHT22;3089;48.202;11.510;2022-12-07T04:11:56;3.20;99.90
6118;DHT22;3089;48.202;11.510;2022-12-07T04:14:24;3.10;99.90
6118;DHT22;3089;48.202;11.510;2022-12-07T04:16:53;3.10;99.90
6118;DHT22;3089;48.202;11.510;2022-12-07T04:19:26;3.10;99.90
6118;DHT22;3089;48.202;11.510;2022-12-07T04:21:54;3.10;99.90
6118;DHT22;3089;48.202;11.510;2022-12-07T04:24:22;3.10;99.90
6118;DHT22;3089;48.202;11.510;2022-12-07T04:26:51;3.10;99.90
6118;DHT22;3089;48.202;11.510;2022-12-07T04:29:19;3.20;99.90
6118;DHT22;3089;48.202;11.510;2022-12-07T04:31:48;3.20;99.90
6118;DHT22;3089;48.202;11.510;2022-12-07T04:34:16;3.10;99.90
6118;DHT22;3089;48.202;11.510;2022-12-07T04:36:46;3.20;99.90
6118;DHT22;3089;48.202;11.510;2022-12-07T04:39:19;3.20;99.90
6118;DHT22;3089;48.202;11.510;2022-12-07T04:41:47;3.30;99.90
6118;DHT22;3089;48.202;11.510;2022-12-07T04:44:16;3.20;99.90
6118;DHT22;3089;48.202;11.510;2022-12-07T04:46:44;3.20;99.90
6118;DHT22;3089;48.202;11.510;2022-12-07T04:49:13;3.20;99.90
6118;DHT22;3089;48.202;11.510;2022-12-07T04:51:41;3.20;99.90
6118;DHT22;3089;48.202;11.510;2022-12-07T04:54:11;3.20;99.90
6118;DHT22;3089;48.202;11.510;2022-12-07T04:56:39;3.20;99.90
6118;DHT22;3089;48.202;11.510;2022-12-07T04:59:07;3.10;99.90
6118;DHT22;3089;48.202;11.510;2022-12-07T05:01:35;3.10;99.90
6118;DHT22;3089;48.202;11.510;2022-12-07T05:04:03;3.20;99.90
6118;DHT22;3089;48.202;11.510;2022-12-07T05:06:31;3.10;99.90
6118;DHT22;3089;48.202;11.510;2022-12-07T05:08:59;3.00;99.90
6118;DHT22;3089;48.202;11.510;2022-12-07T05:11:28;3.10;99.90
6118;DHT22;3089;48.202;11.510;2022-12-07T05:14:08;3.10;99.90
6118;DHT22;3089;48.202;11.510;2022-12-07T05:16:37;3.10;99.90
6118;DHT22;3089;48.202;11.510;2022-12-07T05:19:05;3.10;99.90
6118;DHT22;3089;48.202;11.510;2022-12-07T05:21:33;3.10;99.90
6118;DHT22;3089;48.202;11.510;2022-12-07T05:24:01;3.10;99.90
6118;DHT22;3089;48.202;11.510;2022-12-07T05:26:30;3.10;99.90
6118;DHT22;3089;48.202;11.510;2022-12-07T05:28:59;3.10;99.90
6118;DHT22;3089;48.202;11.510;2022-12-07T05:31:27;3.10;99.90
6118;DHT22;3089;48.202;11.510;2022-12-07T05:33:55;3.10;99.90
6118;DHT22;3089;48.202;11.510;2022-12-07T05:36:23;3.10;99.90
6118;DHT22;3089;48.202;11.510;2022-12-07T05:38:51;3.10;99.90
6118;DHT22;3089;48.202;11.510;2022-12-07T05:41:19;3.10;99.90
6118;DHT22;3089;48.202;11.510;2022-12-07T05:44:05;3.00;99.90
6118;DHT22;3089;48.202;11.510;2022-12-07T05:46:33;3.10;99.90
6118;DHT22;3089;48.202;11.510;2022-12-07T05:49:02;3.10;99.90
6118;DHT22;3089;48.202;11.510;2022-12-07T05:51:30;3.10;99.90
6118;DHT22;3089;48.202;11.510;2022-12-07T05:53:58;3.10;99.90
6118;DHT22;3089;48.202;11.510;2022-12-07T05:56:26;3.10;99.90
6118;DHT22;3089;48.202;11.510;2022-12-07T05:58:54;3.10;99.90
6118;DHT22;3089;48.202;11.510;2022-12-07T06:01:40;3.10;99.90
6118;DHT22;3089;48.202;11.510;2022-12-07T06:04:08;3.10;99.90
6118;DHT22;3089;48.202;11.510;2022-12-07T06:06:36;3.10;99.90
6118;DHT22;3089;48.202;11.510;2022-12-07T06:09:04;3.10;99.90
6118;DHT22;3089;48.202;11.510;2022-12-07T06:11:32;3.10;99.90
6118;DHT22;3089;48.202;11.510;2022-12-07T06:14:17;3.00;99.90
6118;DHT22;3089;48.202;11.510;2022-12-07T06:16:46;3.10;99.90
6118;DHT22;3089;48.202;11.510;2022-12-07T06:19:14;3.10;99.90
6118;DHT22;3089;48.202;11.510;2022-12-07T06:21:42;3.10;99.90
6118;DHT22;3089;48.202;11.510;2022-12-07T06:24:11;3.00;99.90
6118;DHT22;3089;48.202;11.510;2022-12-07T06:26:40;3.00;99.90
6118;DHT22;3089;48.202;11.510;2022-12-07T06:29:08;2.90;99.90
6118;DHT22;3089;48.202;11.510;2022-12-07T06:31:37;2.90;99.90
6118;DHT22;3089;48.202;11.510;2022-12-07T06:34:09;3.00;99.90
6118;DHT22;3089;48.202;11.510;2022-12-07T06:36:37;3.00;99.90
6118;DHT22;3089;48.202;11.510;2022-12-07T06:39:06;3.00;99.90
6118;DHT22;3089;48.202;11.510;2022-12-07T06:41:36;3.00;99.90
6118;DHT22;3089;48.202;11.510;2022-12-07T06:44:04;3.00;99.90
6118;DHT22;3089;48.202;11.510;2022-12-07T06:46:32;3.00;99.90
6118;DHT22;3089;48.202;11.510;2022-12-07T06:49:02;3.00;99.90
6118;DHT22;3089;48.202;11.510;2022-12-07T06:51:32;3.00;99.90
6118;DHT22;3089;48.202;11.510;2022-12-07T06:54:02;3.00;99.90
6118;DHT22;3089;48.202;11.510;2022-12-07T06:56:30;3.00;99.90
6118;DHT22;3089;48.202;11.510;2022-12-07T06:58:57;3.00;99.90
6118;DHT22;3089;48.202;11.510;2022-12-07T07:01:25;3.00;99.90
6118;DHT22;3089;48.202;11.510;2022-12-07T07:03:53;3.00;99.90
6118;DHT22;3089;48.202;11.510;2022-12-07T07:06:21;3.00;99.90
6118;DHT22;3089;48.202;11.510;2022-12-07T07:08:50;3.10;99.90
6118;DHT22;3089;48.202;11.510;2022-12-07T07:11:19;3.00;99.90
6118;DHT22;3089;48.202;11.510;2022-12-07T07:13:48;3.00;99.90
6118;DHT22;3089;48.202;11.510;2022-12-07T07:16:15;3.00;99.90
6118;DHT22;3089;48.202;11.510;2022-12-07T07:18:43;3.00;99.90
6118;DHT22;3089;48.202;11.510;2022-12-07T07:21:11;3.00;99.90
6118;DHT22;3089;48.202;11.510;2022-12-07T07:23:39;3.00;99.90
6118;DHT22;3089;48.202;11.510;2022-12-07T07:26:08;3.00;99.90
6118;DHT22;3089;48.202;11.510;2022-12-07T07:28:36;3.00;99.90
6118;DHT22;3089;48.202;11.510;2022-12-07T07:31:04;3.00;99.90
6118;DHT22;3089;48.202;11.510;2022-12-07T07:33:32;3.10;99.90
6118;DHT22;3089;48.202;11.510;2022-12-07T07:36:00;3.00;99.90
6118;DHT22;3089;48.202;11.510;2022-12-07T07:38:28;3.10;99.90
6118;DHT22;3089;48.202;11.510;2022-12-07T07:40:56;3.10;99.90
6118;DHT22;3089;48.202;11.510;2022-12-07T07:43:25;3.00;99.90
6118;DHT22;3089;48.202;11.510;2022-12-07T07:45:53;3.10;99.90
6118;DHT22;3089;48.202;11.510;2022-12-07T07:48:21;3.10;99.90
6118;DHT22;3089;48.202;11.510;2022-12-07T07:50:51;3.10;99.90
6118;DHT22;3089;48.202;11.510;2022-12-07T07:53:22;3.20;99.90
6118;DHT22;3089;48.202;11.510;2022-12-07T07:55:51;3.10;99.90
6118;DHT22;3089;48.202;11.510;2022-12-07T07:58:20;3.10;99.90
6118;DHT22;3089;48.202;11.510;2022-12-07T08:00:49;3.20;99.90
6118;DHT22;3089;48.202;11.510;2022-12-07T08:03:17;3.20;99.90
6118;DHT22;3089;48.202;11.510;2022-12-07T08:05:45;3.10;99.90
6118;DHT22;3089;48.202;11.510;2022-12-07T08:08:13;3.10;99.90
6118;DHT22;3089;48.202;11.510;2022-12-07T08:10:41;3.20;99.90
6118;DHT22;3089;48.202;11.510;2022-12-07T08:13:08;3.20;99.90
6118;DHT22;3089;48.202;11.510;2022-12-07T08:15:41;3.10;99.90
6118;DHT22;3089;48.202;11.510;2022-12-07T08:18:11;3.20;99.90
6118;DHT22;3089;48.202;11.510;2022-12-07T08:20:40;3.20;99.90
6118;DHT22;3089;48.202;11.510;2022-12-07T08:23:09;3.20;99.90
6118;DHT22;3089;48.202;11.510;2022-12-07T08:25:37;3.20;99.90
6118;DHT22;3089;48.202;11.510;2022-12-07T08:28:06;3.20;99.90
6118;DHT22;3089;48.202;11.510;2022-12-07T08:30:34;3.20;99.90
6118;DHT22;3089;48.202;11.510;2022-12-07T08:33:05;3.10;99.90
6118;DHT22;3089;48.202;11.510;2022-12-07T08:35:34;3.20;99.90
6118;DHT22;3089;48.202;11.510;2022-12-07T08:38:02;3.20;99.90
6118;DHT22;3089;48.202;11.510;2022-12-07T08:40:30;3.20;99.90
6118;DHT22;3089;48.202;11.510;2022-12-07T08:42:58;3.10;99.90
6118;DHT22;3089;48.202;11.510;2022-12-07T08:45:26;3.20;99.90
6118;DHT22;3089;48.202;11.510;2022-12-07T08:47:57;3.30;99.90
6118;DHT22;3089;48.202;11.510;2022-12-07T08:50:26;3.30;99.90
6118;DHT22;3089;48.202;11.510;2022-12-07T08:52:57;3.20;99.90
6118;DHT22;3089;48.202;11.510;2022-12-07T08:55:25;3.20;99.90
6118;DHT22;3089;48.202;11.510;2022-12-07T08:57:55;3.30;99.90
6118;DHT22;3089;48.202;11.510;2022-12-07T09:00:25;3.30;99.90
6118;DHT22;3089;48.202;11.510;2022-12-07T09:02:53;3.30;99.90
6118;DHT22;3089;48.202;11.510;2022-12-07T09:05:22;3.30;99.90
6118;DHT22;3089;48.202;11.510;2022-12-07T09:07:51;3.30;99.90
6118;DHT22;3089;48.202;11.510;2022-12-07T09:10:21;3.30;99.90
6118;DHT22;3089;48.202;11.510;2022-12-07T09:12:50;3.30;99.90
6118;DHT22;3089;48.202;11.510;2022-12-07T09:15:17;3.30;99.90
6118;DHT22;3089;48.202;11.510;2022-12-07T09:17:45;3.30;99.90
6118;DHT22;3089;48.202;11.510;2022-12-07T09:20:13;3.30;99.90
6118;DHT22;3089;48.202;11.510;2022-12-07T09:22:41;3.30;99.90
6118;DHT22;3089;48.202;11.510;2022-12-07T09:25:09;3.40;99.90
6118;DHT22;3089;48.202;11.510;2022-12-07T09:27:38;3.40;99.90
6118;DHT22;3089;48.202;11.510;2022-12-07T09:30:07;3.50;99.90
6118;DHT22;3089;48.202;11.510;2022-12-07T09:32:35;3.50;99.90
6118;DHT22;3089;48.202;11.510;2022-12-07T09:35:03;3.60;99.90
6118;DHT22;3089;48.202;11.510;2022-12-07T09:37:31;3.70;99.90
6118;DHT22;3089;48.202;11.510;2022-12-07T09:40:02;3.60;99.90
6118;DHT22;3089;48.202;11.510;2022-12-07T09:42:33;3.60;99.90
6118;DHT22;3089;48.202;11.510;2022-12-07T09:45:05;3.60;99.90
6118;DHT22;3089;48.202;11.510;2022-12-07T09:47:33;3.70;99.90
6118;DHT22;3089;48.202;11.510;2022-12-07T09:50:05;3.70;99.90
6118;DHT22;3089;48.202;11.510;2022-12-07T09:52:33;3.70;99.90
6118;DHT22;3089;48.202;11.510;2022-12-07T09:55:11;3.70;99.90
6118;DHT22;3089;48.202;11.510;2022-12-07T09:57:39;3.80;99.90
6118;DHT22;3089;48.202;11.510;2022-12-07T10:00:16;3.80;99.90
6118;DHT22;3089;48.202;11.510;2022-12-07T10:02:47;3.80;99.90
6118;DHT22;3089;48.202;11.510;2022-12-07T10:05:20;3.80;99.90
6118;DHT22;3089;48.202;11.510;2022-12-07T10:07:50;3.80;99.90
6118;DHT22;3089;48.202;11.510;2022-12-07T10:10:25;3.90;99.90
6118;DHT22;3089;48.202;11.510;2022-12-07T10:12:58;3.90;99.90
6118;DHT22;3089;48.202;11.510;2022-12-07T10:15:47;3.90;99.90
6118;DHT22;3089;48.202;11.510;2022-12-07T10:18:30;3.90;99.90
6118;DHT22;3089;48.202;11.510;2022-12-07T10:21:20;3.90;99.90
6118;DHT22;3089;48.202;11.510;2022-12-07T10:24:01;3.80;99.90
6118;DHT22;3089;48.202;11.510;2022-12-07T10:26:32;3.90;99.90
6118;DHT22;3089;48.202;11.510;2022-12-07T10:29:04;4.00;99.90
6118;DHT22;3089;48.202;11.510;2022-12-07T10:31:43;4.00;99.90
6118;DHT22;3089;48.202;11.510;2022-12-07T10:34:21;4.00;99.90
6118;DHT22;3089;48.202;11.510;2022-12-07T10:36:51;3.90;99.90
6118;DHT22;3089;48.202;11.510;2022-12-07T10:39:21;4.00;99.90
6118;DHT22;3089;48.202;11.510;2022-12-07T10:41:53;3.90;99.90
6118;DHT22;3089;48.202;11.510;2022-12-07T10:44:24;4.00;99.90
6118;DHT22;3089;48.202;11.510;2022-12-07T10:47:14;4.00;99.90
6118;DHT22;3089;48.202;11.510;2022-12-07T10:53:31;4.00;99.90
6118;DHT22;3089;48.202;11.510;2022-12-07T10:56:12;4.10;99.90
6118;DHT22;3089;48.202;11.510;2022-12-07T10:58:53;4.10;99.90
6118;DHT22;3089;48.202;11.510;2022-12-07T11:01:26;4.10;99.90
6118;DHT22;3089;48.202;11.510;2022-12-07T11:04:10;4.10;99.90
6118;DHT22;3089;48.202;11.510;2022-12-07T11:06:46;4.10;99.90
6118;DHT22;3089;48.202;11.510;2022-12-07T11:09:35;4.10;99.90
6118;DHT22;3089;48.202;11.510;2022-12-07T11:12:33;4.20;99.90
6118;DHT22;3089;48.202;11.510;2022-12-07T11:15:12;4.30;99.90
6118;DHT22;3089;48.202;11.510;2022-12-07T11:17:47;4.30;99.90
6118;DHT22;3089;48.202;11.510;2022-12-07T11:23:18;4.10;99.90
6118;DHT22;3089;48.202;11.510;2022-12-07T11:25:53;4.30;99.90
6118;DHT22;3089;48.202;11.510;2022-12-07T11:28:38;4.20;99.90
6118;DHT22;3089;48.202;11.510;2022-12-07T11:31:17;4.20;99.90
6118;DHT22;3089;48.202;11.510;2022-12-07T11:34:00;4.10;99.90
6118;DHT22;3089;48.202;11.510;2022-12-07T11:36:37;4.10;99.90
6118;DHT22;3089;48.202;11.510;2022-12-07T11:39:15;4.20;99.90
6118;DHT22;3089;48.202;11.510;2022-12-07T11:41:45;4.50;99.90
6118;DHT22;3089;48.202;11.510;2022-12-07T11:44:24;4.40;99.90
6118;DHT22;3089;48.202;11.510;2022-12-07T11:46:56;4.50;99.90
6118;DHT22;3089;48.202;11.510;2022-12-07T11:49:36;4.50;99.90
6118;DHT22;3089;48.202;11.510;2022-12-07T11:52:13;4.50;99.90
6118;DHT22;3089;48.202;11.510;2022-12-07T11:54:43;4.80;99.90
6118;DHT22;3089;48.202;11.510;2022-12-07T11:57:17;5.50;99.90
6118;DHT22;3089;48.202;11.510;2022-12-07T11:59:50;5.50;99.90
6118;DHT22;3089;48.202;11.510;2022-12-07T12:02:21;5.30;99.90
6118;DHT22;3089;48.202;11.510;2022-12-07T12:04:55;5.40;99.90
6118;DHT22;3089;48.202;11.510;2022-12-07T12:07:27;5.80;99.90
6118;DHT22;3089;48.202;11.510;2022-12-07T12:10:24;5.10;99.90
6118;DHT22;3089;48.202;11.510;2022-12-07T12:16:41;4.80;99.90
6118;DHT22;3089;48.202;11.510;2022-12-07T12:19:22;5.20;99.90
6118;DHT22;3089;48.202;11.510;2022-12-07T12:21:56;4.40;99.90
6118;DHT22;3089;48.202;11.510;2022-12-07T12:24:31;4.50;99.90
6118;DHT22;3089;48.202;11.510;2022-12-07T12:27:05;4.70;99.90
6118;DHT22;3089;48.202;11.510;2022-12-07T12:29:35;4.80;99.90
6118;DHT22;3089;48.202;11.510;2022-12-07T12:32:08;5.30;99.90
6118;DHT22;3089;48.202;11.510;2022-12-07T12:34:41;5.30;99.90
6118;DHT22;3089;48.202;11.510;2022-12-07T12:37:41;5.20;99.90
6118;DHT22;3089;48.202;11.510;2022-12-07T12:40:42;5.10;99.90
6118;DHT22;3089;48.202;11.510;2022-12-07T12:43:43;5.00;99.90
6118;DHT22;3089;48.202;11.510;2022-12-07T12:46:38;4.90;99.90
6118;DHT22;3089;48.202;11.510;2022-12-07T12:49:36;5.00;99.90
6118;DHT22;3089;48.202;11.510;2022-12-07T12:55:26;5.00;99.90
6118;DHT22;3089;48.202;11.510;2022-12-07T12:58:33;4.80;99.90
6118;DHT22;3089;48.202;11.510;2022-12-07T13:01:43;4.90;99.90
6118;DHT22;3089;48.202;11.510;2022-12-07T13:04:21;5.00;99.90
6118;DHT22;3089;48.202;11.510;2022-12-07T13:06:50;4.90;99.90
6118;DHT22;3089;48.202;11.510;2022-12-07T13:09:21;5.00;99.90
6118;DHT22;3089;48.202;11.510;2022-12-07T13:11:56;4.90;99.90
6118;DHT22;3089;48.202;11.510;2022-12-07T13:14:56;4.80;99.90
6118;DHT22;3089;48.202;11.510;2022-12-07T13:17:54;4.80;99.90
6118;DHT22;3089;48.202;11.510;2022-12-07T13:20:52;4.90;99.90
6118;DHT22;3089;48.202;11.510;2022-12-07T13:23:27;5.00;99.90
6118;DHT22;3089;48.202;11.510;2022-12-07T13:26:14;5.00;99.90
6118;DHT22;3089;48.202;11.510;2022-12-07T13:28:45;5.00;99.90
6118;DHT22;3089;48.202;11.510;2022-12-07T13:31:34;5.00;99.90
6118;DHT22;3089;48.202;11.510;2022-12-07T13:34:04;4.90;99.90
6118;DHT22;3089;48.202;11.510;2022-12-07T13:36:36;4.90;99.90
6118;DHT22;3089;48.202;11.510;2022-12-07T13:39:20;4.80;99.90
6118;DHT22;3089;48.202;11.510;2022-12-07T13:41:50;4.90;99.90
6118;DHT22;3089;48.202;11.510;2022-12-07T13:44:19;4.60;99.90
6118;DHT22;3089;48.202;11.510;2022-12-07T13:46:53;4.50;99.90
6118;DHT22;3089;48.202;11.510;2022-12-07T13:49:25;4.60;99.90
6118;DHT22;3089;48.202;11.510;2022-12-07T13:51:54;4.60;99.90
6118;DHT22;3089;48.202;11.510;2022-12-07T13:54:22;4.50;99.90
6118;DHT22;3089;48.202;11.510;2022-12-07T13:56:51;4.40;99.90
6118;DHT22;3089;48.202;11.510;2022-12-07T13:59:21;4.40;99.90
6118;DHT22;3089;48.202;11.510;2022-12-07T14:01:52;4.20;99.90
6118;DHT22;3089;48.202;11.510;2022-12-07T14:04:38;4.20;99.90
6118;DHT22;3089;48.202;11.510;2022-12-07T14:07:21;4.30;99.90
6118;DHT22;3089;48.202;11.510;2022-12-07T14:09:58;4.30;99.90
6118;DHT22;3089;48.202;11.510;2022-12-07T14:12:28;4.30;99.90
6118;DHT22;3089;48.202;11.510;2022-12-07T14:14:57;4.30;99.90
6118;DHT22;3089;48.202;11.510;2022-12-07T14:17:28;4.30;99.90
6118;DHT22;3089;48.202;11.510;2022-12-07T14:19:57;4.30;99.90
6118;DHT22;3089;48.202;11.510;2022-12-07T14:22:29;4.30;99.90
6118;DHT22;3089;48.202;11.510;2022-12-07T14:25:13;4.40;99.90
6118;DHT22;3089;48.202;11.510;2022-12-07T14:27:49;4.30;99.90
6118;DHT22;3089;48.202;11.510;2022-12-07T14:30:18;4.20;99.90
6118;DHT22;3089;48.202;11.510;2022-12-07T14:32:50;4.10;99.90
6118;DHT22;3089;48.202;11.510;2022-12-07T14:35:19;4.10;99.90
6118;DHT22;3089;48.202;11.510;2022-12-07T14:37:48;4.10;99.90
6118;DHT22;3089;48.202;11.510;2022-12-07T14:40:18;3.90;99.90
6118;DHT22;3089;48.202;11.510;2022-12-07T14:42:48;3.80;99.90
6118;DHT22;3089;48.202;11.510;2022-12-07T14:45:18;3.80;99.90
6118;DHT22;3089;48.202;11.510;2022-12-07T14:47:48;3.80;99.90
6118;DHT22;3089;48.202;11.510;2022-12-07T14:50:38;3.80;99.90
6118;DHT22;3089;48.202;11.510;2022-12-07T14:53:29;3.90;99.90
6118;DHT22;3089;48.202;11.510;2022-12-07T14:55:58;3.80;99.90
6118;DHT22;3089;48.202;11.510;2022-12-07T14:58:26;3.60;99.90
6118;DHT22;3089;48.202;11.510;2022-12-07T15:00:54;3.80;99.90
6118;DHT22;3089;48.202;11.510;2022-12-07T15:03:23;3.80;99.90
6118;DHT22;3089;48.202;11.510;2022-12-07T15:05:51;3.80;99.90
6118;DHT22;3089;48.202;11.510;2022-12-07T15:08:19;3.80;99.90
6118;DHT22;3089;48.202;11.510;2022-12-07T15:10:47;3.70;99.90
6118;DHT22;3089;48.202;11.510;2022-12-07T15:13:15;3.70;99.90
6118;DHT22;3089;48.202;11.510;2022-12-07T15:16:00;3.70;99.90
6118;DHT22;3089;48.202;11.510;2022-12-07T15:18:29;3.70;99.90
6118;DHT22;3089;48.202;11.510;2022-12-07T15:20:57;3.70;99.90
6118;DHT22;3089;48.202;11.510;2022-12-07T15:23:25;3.70;99.90
6118;DHT22;3089;48.202;11.510;2022-12-07T15:25:53;3.70;99.90
6118;DHT22;3089;48.202;11.510;2022-12-07T15:28:21;3.70;99.90
6118;DHT22;3089;48.202;11.510;2022-12-07T15:30:49;3.70;99.90
6118;DHT22;3089;48.202;11.510;2022-12-07T15:33:17;3.70;99.90
6118;DHT22;3089;48.202;11.510;2022-12-07T15:35:46;3.70;99.90
6118;DHT22;3089;48.202;11.510;2022-12-07T15:38:14;3.70;99.90
6118;DHT22;3089;48.202;11.510;2022-12-07T15:40:41;3.70;99.90
6118;DHT22;3089;48.202;11.510;2022-12-07T15:43:09;3.90;99.90
6118;DHT22;3089;48.202;11.510;2022-12-07T15:45:57;3.70;99.90
6118;DHT22;3089;48.202;11.510;2022-12-07T15:48:25;3.70;99.90
6118;DHT22;3089;48.202;11.510;2022-12-07T15:51:02;3.80;99.90
6118;DHT22;3089;48.202;11.510;2022-12-07T15:53:31;3.70;99.90
6118;DHT22;3089;48.202;11.510;2022-12-07T15:55:59;3.70;99.90
6118;DHT22;3089;48.202;11.510;2022-12-07T15:58:27;3.70;99.90
6118;DHT22;3089;48.202;11.510;2022-12-07T16:00:55;3.70;99.90
6118;DHT22;3089;48.202;11.510;2022-12-07T16:03:22;3.70;99.90
6118;DHT22;3089;48.202;11.510;2022-12-07T16:05:51;3.60;99.90
6118;DHT22;3089;48.202;11.510;2022-12-07T16:08:20;3.60;99.90
6118;DHT22;3089;48.202;11.510;2022-12-07T16:10:48;3.60;99.90
6118;DHT22;3089;48.202;11.510;2022-12-07T16:13:16;3.60;99.90
6118;DHT22;3089;48.202;11.510;2022-12-07T16:15:45;3.60;99.90
6118;DHT22;3089;48.202;11.510;2022-12-07T16:18:13;3.60;99.90
6118;DHT22;3089;48.202;11.510;2022-12-07T16:20:41;3.60;99.90
6118;DHT22;3089;48.202;11.510;2022-12-07T16:23:09;3.60;99.90
6118;DHT22;3089;48.202;11.510;2022-12-07T16:25:38;3.60;99.90
6118;DHT22;3089;48.202;11.510;2022-12-07T16:28:06;3.60;99.90
6118;DHT22;3089;48.202;11.510;2022-12-07T16:30:34;3.60;99.90
6118;DHT22;3089;48.202;11.510;2022-12-07T16:33:02;3.50;99.90
6118;DHT22;3089;48.202;11.510;2022-12-07T16:35:30;3.50;99.90
6118;DHT22;3089;48.202;11.510;2022-12-07T16:37:58;3.50;99.90
6118;DHT22;3089;48.202;11.510;2022-12-07T16:40:25;3.50;99.90
6118;DHT22;3089;48.202;11.510;2022-12-07T16:42:55;3.50;99.90
6118;DHT22;3089;48.202;11.510;2022-12-07T16:45:23;3.50;99.90
6118;DHT22;3089;48.202;11.510;2022-12-07T16:47:51;3.50;99.90
6118;DHT22;3089;48.202;11.510;2022-12-07T16:50:19;3.50;99.90